sensor_id;sensor_type;location;lat;lon;timestamp;P1;durP1;ratioP1;P2;durP2;ratioP2
25559;SDS011;13450;49.374;8.584;2024-01-30T00:01:12;12.82;;;5.60;;
25559;SDS011;13450;49.374;8.584;2024-01-30T00:03:38;10.00;;;4.00;;
25559;SDS011;13450;49.374;8.584;2024-01-30T00:06:03;11.93;;;5.25;;
25559;SDS011;13450;49.374;8.584;2024-01-30T00:08:28;12.20;;;5.35;;
25559;SDS011;13450;49.374;8.584;2024-01-30T00:10:54;11.80;;;4.55;;
25559;SDS011;13450;49.374;8.584;2024-01-30T00:13:19;11.60;;;4.63;;
25559;SDS011;13450;49.374;8.584;2024-01-30T00:15:47;11.63;;;5.88;;
25559;SDS011;13450;49.374;8.584;2024-01-30T00:18:13;11.02;;;4.97;;
25559;SDS011;13450;49.374;8.584;2024-01-30T00:20:41;12.15;;;4.75;;
25559;SDS011;13450;49.374;8.584;2024-01-30T00:23:07;11.40;;;5.57;;
25559;SDS011;13450;49.374;8.584;2024-01-30T00:25:33;14.95;;;6.03;;
25559;SDS011;13450;49.374;8.584;2024-01-30T00:27:58;10.65;;;4.47;;
25559;SDS011;13450;49.374;8.584;2024-01-30T00:30:23;11.23;;;4.50;;
25559;SDS011;13450;49.374;8.584;2024-01-30T00:32:49;10.07;;;3.80;;
25559;SDS011;13450;49.374;8.584;2024-01-30T00:35:14;8.48;;;3.45;;
25559;SDS011;13450;49.374;8.584;2024-01-30T00:37:39;8.85;;;3.42;;
25559;SDS011;13450;49.374;8.584;2024-01-30T00:40:05;12.25;;;4.82;;
25559;SDS011;13450;49.374;8.584;2024-01-30T00:42:31;7.50;;;3.33;;
25559;SDS011;13450;49.374;8.584;2024-01-30T00:44:59;5.75;;;3.33;;
25559;SDS011;13450;49.374;8.584;2024-01-30T00:47:24;8.43;;;3.70;;
25559;SDS011;13450;49.374;8.584;2024-01-30T00:49:49;8.75;;;3.45;;
25559;SDS011;13450;49.374;8.584;2024-01-30T00:52:15;9.93;;;3.60;;
25559;SDS011;13450;49.374;8.584;2024-01-30T00:54:40;6.80;;;3.20;;
25559;SDS011;13450;49.374;8.584;2024-01-30T00:57:06;7.68;;;3.40;;
25559;SDS011;13450;49.374;8.584;2024-01-30T00:59:31;7.13;;;2.97;;
25559;SDS011;13450;49.374;8.584;2024-01-30T01:01:56;10.43;;;3.83;;
25559;SDS011;13450;49.374;8.584;2024-01-30T01:04:21;9.77;;;3.63;;
25559;SDS011;13450;49.374;8.584;2024-01-30T01:06:47;9.23;;;3.75;;
25559;SDS011;13450;49.374;8.584;2024-01-30T01:09:12;8.30;;;2.92;;
25559;SDS011;13450;49.374;8.584;2024-01-30T01:11:38;10.65;;;4.47;;
25559;SDS011;13450;49.374;8.584;2024-01-30T01:14:03;12.00;;;4.70;;
25559;SDS011;13450;49.374;8.584;2024-01-30T01:16:29;10.80;;;4.57;;
25559;SDS011;13450;49.374;8.584;2024-01-30T01:18:54;7.28;;;3.22;;
25559;SDS011;13450;49.374;8.584;2024-01-30T01:21:20;8.25;;;4.35;;
25559;SDS011;13450;49.374;8.584;2024-01-30T01:23:48;9.90;;;4.10;;
25559;SDS011;13450;49.374;8.584;2024-01-30T01:26:13;7.60;;;3.55;;
25559;SDS011;13450;49.374;8.584;2024-01-30T01:28:41;8.70;;;3.88;;
25559;SDS011;13450;49.374;8.584;2024-01-30T01:31:07;9.15;;;3.67;;
25559;SDS011;13450;49.374;8.584;2024-01-30T01:33:34;7.53;;;3.47;;
25559;SDS011;13450;49.374;8.584;2024-01-30T01:36:02;8.52;;;3.72;;
25559;SDS011;13450;49.374;8.584;2024-01-30T01:38:28;7.50;;;3.58;;
25559;SDS011;13450;49.374;8.584;2024-01-30T01:40:56;6.72;;;3.55;;
25559;SDS011;13450;49.374;8.584;2024-01-30T01:45:48;6.53;;;3.10;;
25559;SDS011;13450;49.374;8.584;2024-01-30T01:48:14;6.57;;;3.53;;
25559;SDS011;13450;49.374;8.584;2024-01-30T01:50:40;8.13;;;3.40;;
25559;SDS011;13450;49.374;8.584;2024-01-30T01:53:07;8.00;;;3.75;;
25559;SDS011;13450;49.374;8.584;2024-01-30T01:55:33;6.60;;;3.20;;
25559;SDS011;13450;49.374;8.584;2024-01-30T01:58:02;7.20;;;3.47;;
25559;SDS011;13450;49.374;8.584;2024-01-30T02:00:27;8.57;;;3.42;;
25559;SDS011;13450;49.374;8.584;2024-01-30T02:02:54;8.05;;;3.58;;
25559;SDS011;13450;49.374;8.584;2024-01-30T02:05:20;8.88;;;3.63;;
25559;SDS011;13450;49.374;8.584;2024-01-30T02:07:46;8.85;;;3.65;;
25559;SDS011;13450;49.374;8.584;2024-01-30T02:10:15;6.97;;;3.60;;
25559;SDS011;13450;49.374;8.584;2024-01-30T02:12:40;5.53;;;2.92;;
25559;SDS011;13450;49.374;8.584;2024-01-30T02:15:05;7.97;;;3.17;;
25559;SDS011;13450;49.374;8.584;2024-01-30T02:17:32;7.45;;;3.25;;
25559;SDS011;13450;49.374;8.584;2024-01-30T02:19:57;9.57;;;3.45;;
25559;SDS011;13450;49.374;8.584;2024-01-30T02:22:23;10.70;;;3.72;;
25559;SDS011;13450;49.374;8.584;2024-01-30T02:24:49;8.30;;;3.55;;
25559;SDS011;13450;49.374;8.584;2024-01-30T02:27:14;6.35;;;2.67;;
25559;SDS011;13450;49.374;8.584;2024-01-30T02:29:40;7.50;;;3.42;;
25559;SDS011;13450;49.374;8.584;2024-01-30T02:32:05;8.27;;;3.40;;
25559;SDS011;13450;49.374;8.584;2024-01-30T02:34:32;17.13;;;5.63;;
25559;SDS011;13450;49.374;8.584;2024-01-30T02:36:58;12.00;;;3.58;;
25559;SDS011;13450;49.374;8.584;2024-01-30T02:39:23;7.78;;;3.47;;
25559;SDS011;13450;49.374;8.584;2024-01-30T02:41:48;9.57;;;3.50;;
25559;SDS011;13450;49.374;8.584;2024-01-30T02:44:14;8.85;;;3.60;;
25559;SDS011;13450;49.374;8.584;2024-01-30T02:46:41;8.98;;;3.60;;
25559;SDS011;13450;49.374;8.584;2024-01-30T02:49:07;8.02;;;3.42;;
25559;SDS011;13450;49.374;8.584;2024-01-30T02:51:32;6.15;;;3.05;;
25559;SDS011;13450;49.374;8.584;2024-01-30T02:56:27;7.10;;;3.38;;
25559;SDS011;13450;49.374;8.584;2024-01-30T02:58:52;7.80;;;3.30;;
25559;SDS011;13450;49.374;8.584;2024-01-30T03:01:17;8.50;;;3.78;;
25559;SDS011;13450;49.374;8.584;2024-01-30T03:03:43;6.95;;;3.78;;
25559;SDS011;13450;49.374;8.584;2024-01-30T03:06:08;7.57;;;3.25;;
25559;SDS011;13450;49.374;8.584;2024-01-30T03:08:33;7.45;;;3.25;;
25559;SDS011;13450;49.374;8.584;2024-01-30T03:11:00;8.85;;;3.60;;
25559;SDS011;13450;49.374;8.584;2024-01-30T03:13:25;7.95;;;3.28;;
25559;SDS011;13450;49.374;8.584;2024-01-30T03:15:51;8.13;;;3.50;;
25559;SDS011;13450;49.374;8.584;2024-01-30T03:18:16;8.18;;;3.35;;
25559;SDS011;13450;49.374;8.584;2024-01-30T03:20:42;9.68;;;3.38;;
25559;SDS011;13450;49.374;8.584;2024-01-30T03:23:08;7.75;;;3.47;;
25559;SDS011;13450;49.374;8.584;2024-01-30T03:25:33;6.63;;;3.33;;
25559;SDS011;13450;49.374;8.584;2024-01-30T03:27:58;10.02;;;3.72;;
25559;SDS011;13450;49.374;8.584;2024-01-30T03:30:24;9.10;;;3.70;;
25559;SDS011;13450;49.374;8.584;2024-01-30T03:32:49;9.55;;;4.07;;
25559;SDS011;13450;49.374;8.584;2024-01-30T03:35:15;8.40;;;3.70;;
25559;SDS011;13450;49.374;8.584;2024-01-30T03:37:40;7.60;;;3.95;;
25559;SDS011;13450;49.374;8.584;2024-01-30T03:40:06;6.15;;;3.35;;
25559;SDS011;13450;49.374;8.584;2024-01-30T03:42:34;7.50;;;3.65;;
25559;SDS011;13450;49.374;8.584;2024-01-30T03:44:59;8.18;;;3.63;;
25559;SDS011;13450;49.374;8.584;2024-01-30T03:47:24;6.85;;;3.35;;
25559;SDS011;13450;49.374;8.584;2024-01-30T03:49:49;8.80;;;3.78;;
25559;SDS011;13450;49.374;8.584;2024-01-30T03:52:15;8.68;;;3.78;;
25559;SDS011;13450;49.374;8.584;2024-01-30T03:54:40;8.63;;;3.88;;
25559;SDS011;13450;49.374;8.584;2024-01-30T03:57:10;8.75;;;3.92;;
25559;SDS011;13450;49.374;8.584;2024-01-30T03:59:38;5.88;;;2.95;;
25559;SDS011;13450;49.374;8.584;2024-01-30T04:02:09;7.32;;;3.38;;
25559;SDS011;13450;49.374;8.584;2024-01-30T04:04:36;5.78;;;2.58;;
25559;SDS011;13450;49.374;8.584;2024-01-30T04:07:01;9.52;;;3.60;;
25559;SDS011;13450;49.374;8.584;2024-01-30T04:09:27;7.32;;;3.08;;
25559;SDS011;13450;49.374;8.584;2024-01-30T04:11:53;11.10;;;3.95;;
25559;SDS011;13450;49.374;8.584;2024-01-30T04:14:19;39.97;;;10.75;;
25559;SDS011;13450;49.374;8.584;2024-01-30T04:16:44;33.47;;;9.63;;
25559;SDS011;13450;49.374;8.584;2024-01-30T04:19:09;33.30;;;9.68;;
25559;SDS011;13450;49.374;8.584;2024-01-30T04:21:34;30.65;;;10.25;;
25559;SDS011;13450;49.374;8.584;2024-01-30T04:24:00;24.40;;;6.85;;
25559;SDS011;13450;49.374;8.584;2024-01-30T04:26:25;19.70;;;5.88;;
25559;SDS011;13450;49.374;8.584;2024-01-30T04:28:50;14.63;;;4.97;;
25559;SDS011;13450;49.374;8.584;2024-01-30T04:31:16;11.88;;;4.30;;
25559;SDS011;13450;49.374;8.584;2024-01-30T04:33:41;10.70;;;4.07;;
25559;SDS011;13450;49.374;8.584;2024-01-30T04:36:08;10.43;;;3.60;;
25559;SDS011;13450;49.374;8.584;2024-01-30T04:38:35;8.70;;;3.47;;
25559;SDS011;13450;49.374;8.584;2024-01-30T04:41:00;7.35;;;3.72;;
25559;SDS011;13450;49.374;8.584;2024-01-30T04:43:29;11.73;;;3.70;;
25559;SDS011;13450;49.374;8.584;2024-01-30T04:45:55;8.18;;;3.60;;
25559;SDS011;13450;49.374;8.584;2024-01-30T04:48:20;9.68;;;3.90;;
25559;SDS011;13450;49.374;8.584;2024-01-30T04:50:45;9.00;;;3.90;;
25559;SDS011;13450;49.374;8.584;2024-01-30T04:53:11;10.55;;;4.82;;
25559;SDS011;13450;49.374;8.584;2024-01-30T04:55:39;15.18;;;6.20;;
25559;SDS011;13450;49.374;8.584;2024-01-30T04:58:07;13.95;;;5.18;;
25559;SDS011;13450;49.374;8.584;2024-01-30T05:00:32;12.00;;;4.78;;
25559;SDS011;13450;49.374;8.584;2024-01-30T05:02:58;16.52;;;5.82;;
25559;SDS011;13450;49.374;8.584;2024-01-30T05:05:23;12.82;;;5.47;;
25559;SDS011;13450;49.374;8.584;2024-01-30T05:07:48;10.52;;;4.82;;
25559;SDS011;13450;49.374;8.584;2024-01-30T05:10:14;14.88;;;5.38;;
25559;SDS011;13450;49.374;8.584;2024-01-30T05:12:39;13.75;;;5.43;;
25559;SDS011;13450;49.374;8.584;2024-01-30T05:15:05;16.08;;;5.38;;
25559;SDS011;13450;49.374;8.584;2024-01-30T05:17:31;12.80;;;5.68;;
25559;SDS011;13450;49.374;8.584;2024-01-30T05:19:56;11.70;;;4.90;;
25559;SDS011;13450;49.374;8.584;2024-01-30T05:22:21;12.00;;;4.43;;
25559;SDS011;13450;49.374;8.584;2024-01-30T05:24:49;9.43;;;3.78;;
25559;SDS011;13450;49.374;8.584;2024-01-30T05:27:17;9.07;;;4.47;;
25559;SDS011;13450;49.374;8.584;2024-01-30T05:29:42;10.68;;;3.47;;
25559;SDS011;13450;49.374;8.584;2024-01-30T05:32:09;10.35;;;4.00;;
25559;SDS011;13450;49.374;8.584;2024-01-30T05:34:35;10.43;;;4.40;;
25559;SDS011;13450;49.374;8.584;2024-01-30T05:37:03;10.55;;;4.32;;
25559;SDS011;13450;49.374;8.584;2024-01-30T05:39:28;7.38;;;3.92;;
25559;SDS011;13450;49.374;8.584;2024-01-30T05:41:54;11.02;;;4.00;;
25559;SDS011;13450;49.374;8.584;2024-01-30T05:44:19;10.00;;;4.25;;
25559;SDS011;13450;49.374;8.584;2024-01-30T05:46:45;7.68;;;3.88;;
25559;SDS011;13450;49.374;8.584;2024-01-30T05:49:10;8.80;;;3.58;;
25559;SDS011;13450;49.374;8.584;2024-01-30T05:51:35;9.38;;;3.75;;
25559;SDS011;13450;49.374;8.584;2024-01-30T05:54:01;8.27;;;3.97;;
25559;SDS011;13450;49.374;8.584;2024-01-30T05:56:28;8.90;;;4.20;;
25559;SDS011;13450;49.374;8.584;2024-01-30T05:58:56;9.60;;;4.30;;
25559;SDS011;13450;49.374;8.584;2024-01-30T06:01:21;8.32;;;3.75;;
25559;SDS011;13450;49.374;8.584;2024-01-30T06:03:46;9.82;;;4.30;;
25559;SDS011;13450;49.374;8.584;2024-01-30T06:06:12;8.32;;;4.15;;
25559;SDS011;13450;49.374;8.584;2024-01-30T06:08:37;8.45;;;3.50;;
25559;SDS011;13450;49.374;8.584;2024-01-30T06:11:02;6.20;;;3.17;;
25559;SDS011;13450;49.374;8.584;2024-01-30T06:13:27;8.52;;;3.70;;
25559;SDS011;13450;49.374;8.584;2024-01-30T06:15:55;9.68;;;4.18;;
25559;SDS011;13450;49.374;8.584;2024-01-30T06:18:20;10.02;;;3.70;;
25559;SDS011;13450;49.374;8.584;2024-01-30T06:20:48;10.70;;;4.25;;
25559;SDS011;13450;49.374;8.584;2024-01-30T06:23:14;14.82;;;5.45;;
25559;SDS011;13450;49.374;8.584;2024-01-30T06:25:41;10.50;;;4.95;;
25559;SDS011;13450;49.374;8.584;2024-01-30T06:28:09;12.32;;;5.50;;
25559;SDS011;13450;49.374;8.584;2024-01-30T06:30:35;11.63;;;4.32;;
25559;SDS011;13450;49.374;8.584;2024-01-30T06:33:00;11.75;;;4.97;;
25559;SDS011;13450;49.374;8.584;2024-01-30T06:35:25;10.20;;;4.43;;
25559;SDS011;13450;49.374;8.584;2024-01-30T06:37:50;11.38;;;4.50;;
25559;SDS011;13450;49.374;8.584;2024-01-30T06:40:18;12.18;;;4.80;;
25559;SDS011;13450;49.374;8.584;2024-01-30T06:42:44;7.32;;;3.90;;
25559;SDS011;13450;49.374;8.584;2024-01-30T06:45:09;8.93;;;4.20;;
25559;SDS011;13450;49.374;8.584;2024-01-30T06:47:34;8.68;;;3.83;;
25559;SDS011;13450;49.374;8.584;2024-01-30T06:49:59;11.40;;;4.45;;
25559;SDS011;13450;49.374;8.584;2024-01-30T06:52:27;10.38;;;3.65;;
25559;SDS011;13450;49.374;8.584;2024-01-30T06:54:52;9.40;;;4.05;;
25559;SDS011;13450;49.374;8.584;2024-01-30T06:57:19;10.50;;;4.45;;
25559;SDS011;13450;49.374;8.584;2024-01-30T06:59:45;10.60;;;4.45;;
25559;SDS011;13450;49.374;8.584;2024-01-30T07:02:10;13.13;;;4.25;;
25559;SDS011;13450;49.374;8.584;2024-01-30T07:04:38;8.38;;;3.50;;
25559;SDS011;13450;49.374;8.584;2024-01-30T07:07:05;10.40;;;4.43;;
25559;SDS011;13450;49.374;8.584;2024-01-30T07:09:30;12.18;;;5.18;;
25559;SDS011;13450;49.374;8.584;2024-01-30T07:11:56;11.55;;;4.57;;
25559;SDS011;13450;49.374;8.584;2024-01-30T07:14:23;11.07;;;4.32;;
25559;SDS011;13450;49.374;8.584;2024-01-30T07:16:49;13.85;;;5.72;;
25559;SDS011;13450;49.374;8.584;2024-01-30T07:19:15;14.05;;;6.40;;
25559;SDS011;13450;49.374;8.584;2024-01-30T07:21:40;11.88;;;5.22;;
25559;SDS011;13450;49.374;8.584;2024-01-30T07:24:05;10.65;;;3.92;;
25559;SDS011;13450;49.374;8.584;2024-01-30T07:26:31;11.23;;;4.60;;
25559;SDS011;13450;49.374;8.584;2024-01-30T07:28:56;12.40;;;4.43;;
25559;SDS011;13450;49.374;8.584;2024-01-30T07:31:21;14.70;;;5.15;;
25559;SDS011;13450;49.374;8.584;2024-01-30T07:33:48;13.00;;;5.32;;
25559;SDS011;13450;49.374;8.584;2024-01-30T07:36:13;15.27;;;6.75;;
25559;SDS011;13450;49.374;8.584;2024-01-30T07:38:38;20.45;;;7.13;;
25559;SDS011;13450;49.374;8.584;2024-01-30T07:41:04;31.20;;;9.07;;
25559;SDS011;13450;49.374;8.584;2024-01-30T07:43:29;29.00;;;8.95;;
25559;SDS011;13450;49.374;8.584;2024-01-30T07:45:54;26.83;;;9.07;;
25559;SDS011;13450;49.374;8.584;2024-01-30T07:48:20;24.02;;;9.60;;
25559;SDS011;13450;49.374;8.584;2024-01-30T07:50:46;20.30;;;7.72;;
25559;SDS011;13450;49.374;8.584;2024-01-30T07:53:11;24.10;;;8.80;;
25559;SDS011;13450;49.374;8.584;2024-01-30T07:55:36;15.77;;;6.85;;
25559;SDS011;13450;49.374;8.584;2024-01-30T07:58:02;14.18;;;6.03;;
25559;SDS011;13450;49.374;8.584;2024-01-30T08:00:28;15.43;;;6.60;;
25559;SDS011;13450;49.374;8.584;2024-01-30T08:02:54;11.18;;;5.35;;
25559;SDS011;13450;49.374;8.584;2024-01-30T08:05:22;11.07;;;5.07;;
25559;SDS011;13450;49.374;8.584;2024-01-30T08:07:53;11.68;;;4.78;;
25559;SDS011;13450;49.374;8.584;2024-01-30T08:10:19;10.40;;;4.45;;
25559;SDS011;13450;49.374;8.584;2024-01-30T08:12:49;15.48;;;4.95;;
25559;SDS011;13450;49.374;8.584;2024-01-30T08:15:17;10.23;;;4.40;;
25559;SDS011;13450;49.374;8.584;2024-01-30T08:17:42;10.38;;;5.00;;
25559;SDS011;13450;49.374;8.584;2024-01-30T08:20:07;10.60;;;5.05;;
25559;SDS011;13450;49.374;8.584;2024-01-30T08:22:35;12.35;;;5.00;;
25559;SDS011;13450;49.374;8.584;2024-01-30T08:25:00;9.18;;;4.55;;
25559;SDS011;13450;49.374;8.584;2024-01-30T08:27:25;8.23;;;4.10;;
25559;SDS011;13450;49.374;8.584;2024-01-30T08:29:51;10.88;;;4.13;;
25559;SDS011;13450;49.374;8.584;2024-01-30T08:32:16;10.95;;;4.57;;
25559;SDS011;13450;49.374;8.584;2024-01-30T08:34:41;14.30;;;5.95;;
25559;SDS011;13450;49.374;8.584;2024-01-30T08:37:07;14.23;;;5.60;;
25559;SDS011;13450;49.374;8.584;2024-01-30T08:39:32;11.60;;;5.80;;
25559;SDS011;13450;49.374;8.584;2024-01-30T08:41:57;9.63;;;4.50;;
25559;SDS011;13450;49.374;8.584;2024-01-30T08:44:23;12.85;;;4.85;;
25559;SDS011;13450;49.374;8.584;2024-01-30T08:46:48;10.48;;;4.68;;
25559;SDS011;13450;49.374;8.584;2024-01-30T08:49:19;11.52;;;5.13;;
25559;SDS011;13450;49.374;8.584;2024-01-30T08:51:45;13.30;;;5.85;;
25559;SDS011;13450;49.374;8.584;2024-01-30T08:54:10;9.60;;;4.22;;
25559;SDS011;13450;49.374;8.584;2024-01-30T08:56:36;11.88;;;5.20;;
25559;SDS011;13450;49.374;8.584;2024-01-30T08:59:01;10.35;;;4.75;;
25559;SDS011;13450;49.374;8.584;2024-01-30T09:01:29;9.73;;;4.80;;
25559;SDS011;13450;49.374;8.584;2024-01-30T09:03:54;10.40;;;5.10;;
25559;SDS011;13450;49.374;8.584;2024-01-30T09:06:21;9.07;;;4.88;;
25559;SDS011;13450;49.374;8.584;2024-01-30T09:08:47;11.73;;;4.97;;
25559;SDS011;13450;49.374;8.584;2024-01-30T09:11:14;8.75;;;4.47;;
25559;SDS011;13450;49.374;8.584;2024-01-30T09:13:40;11.25;;;4.30;;
25559;SDS011;13450;49.374;8.584;2024-01-30T09:16:08;10.27;;;5.20;;
25559;SDS011;13450;49.374;8.584;2024-01-30T09:18:33;9.85;;;4.75;;
25559;SDS011;13450;49.374;8.584;2024-01-30T09:21:01;8.68;;;4.80;;
25559;SDS011;13450;49.374;8.584;2024-01-30T09:23:27;9.00;;;4.57;;
25559;SDS011;13450;49.374;8.584;2024-01-30T09:25:52;8.80;;;4.50;;
25559;SDS011;13450;49.374;8.584;2024-01-30T09:28:18;9.57;;;4.35;;
25559;SDS011;13450;49.374;8.584;2024-01-30T09:30:43;11.07;;;5.38;;
25559;SDS011;13450;49.374;8.584;2024-01-30T09:33:11;10.65;;;5.13;;
25559;SDS011;13450;49.374;8.584;2024-01-30T09:35:45;12.43;;;4.82;;
25559;SDS011;13450;49.374;8.584;2024-01-30T09:38:13;11.98;;;5.07;;
25559;SDS011;13450;49.374;8.584;2024-01-30T09:40:38;8.43;;;4.22;;
25559;SDS011;13450;49.374;8.584;2024-01-30T09:43:03;9.63;;;5.07;;
25559;SDS011;13450;49.374;8.584;2024-01-30T09:45:31;9.90;;;5.07;;
25559;SDS011;13450;49.374;8.584;2024-01-30T09:47:58;9.02;;;4.57;;
25559;SDS011;13450;49.374;8.584;2024-01-30T09:50:24;10.52;;;4.90;;
25559;SDS011;13450;49.374;8.584;2024-01-30T09:52:49;10.25;;;4.70;;
25559;SDS011;13450;49.374;8.584;2024-01-30T09:55:17;12.73;;;5.90;;
25559;SDS011;13450;49.374;8.584;2024-01-30T09:57:42;9.63;;;5.00;;
25559;SDS011;13450;49.374;8.584;2024-01-30T10:00:08;8.48;;;4.45;;
25559;SDS011;13450;49.374;8.584;2024-01-30T10:02:34;11.77;;;5.00;;
25559;SDS011;13450;49.374;8.584;2024-01-30T10:05:00;10.68;;;4.38;;
25559;SDS011;13450;49.374;8.584;2024-01-30T10:07:28;9.65;;;4.43;;
25559;SDS011;13450;49.374;8.584;2024-01-30T10:09:55;8.93;;;4.57;;
25559;SDS011;13450;49.374;8.584;2024-01-30T10:12:25;9.98;;;4.80;;
25559;SDS011;13450;49.374;8.584;2024-01-30T10:14:51;10.73;;;5.00;;
25559;SDS011;13450;49.374;8.584;2024-01-30T10:17:17;11.50;;;5.78;;
25559;SDS011;13450;49.374;8.584;2024-01-30T10:19:42;13.02;;;5.22;;
25559;SDS011;13450;49.374;8.584;2024-01-30T10:22:08;10.98;;;5.30;;
25559;SDS011;13450;49.374;8.584;2024-01-30T10:24:34;10.55;;;5.28;;
25559;SDS011;13450;49.374;8.584;2024-01-30T10:26:59;11.75;;;5.60;;
25559;SDS011;13450;49.374;8.584;2024-01-30T10:29:26;9.98;;;4.55;;
25559;SDS011;13450;49.374;8.584;2024-01-30T10:32:01;8.68;;;4.30;;
25559;SDS011;13450;49.374;8.584;2024-01-30T10:34:27;10.77;;;5.05;;
25559;SDS011;13450;49.374;8.584;2024-01-30T10:37:00;9.95;;;5.00;;
25559;SDS011;13450;49.374;8.584;2024-01-30T10:39:38;12.55;;;5.03;;
25559;SDS011;13450;49.374;8.584;2024-01-30T10:42:14;9.40;;;4.95;;
25559;SDS011;13450;49.374;8.584;2024-01-30T10:45:05;11.73;;;5.13;;
25559;SDS011;13450;49.374;8.584;2024-01-30T10:47:33;10.88;;;5.28;;
25559;SDS011;13450;49.374;8.584;2024-01-30T10:50:01;10.90;;;5.50;;
25559;SDS011;13450;49.374;8.584;2024-01-30T10:52:28;10.88;;;5.43;;
25559;SDS011;13450;49.374;8.584;2024-01-30T10:54:56;10.05;;;5.05;;
25559;SDS011;13450;49.374;8.584;2024-01-30T10:57:25;10.02;;;5.15;;
25559;SDS011;13450;49.374;8.584;2024-01-30T10:59:52;13.77;;;5.72;;
25559;SDS011;13450;49.374;8.584;2024-01-30T11:02:22;11.50;;;5.70;;
25559;SDS011;13450;49.374;8.584;2024-01-30T11:04:49;9.83;;;5.30;;
25559;SDS011;13450;49.374;8.584;2024-01-30T11:07:18;11.82;;;5.78;;
25559;SDS011;13450;49.374;8.584;2024-01-30T11:09:52;8.93;;;5.00;;
25559;SDS011;13450;49.374;8.584;2024-01-30T11:14:49;10.02;;;5.03;;
25559;SDS011;13450;49.374;8.584;2024-01-30T11:17:27;9.77;;;4.88;;
25559;SDS011;13450;49.374;8.584;2024-01-30T11:19:52;11.18;;;5.55;;
25559;SDS011;13450;49.374;8.584;2024-01-30T11:22:20;12.77;;;6.05;;
25559;SDS011;13450;49.374;8.584;2024-01-30T11:24:46;11.25;;;5.70;;
25559;SDS011;13450;49.374;8.584;2024-01-30T11:27:12;10.57;;;4.97;;
25559;SDS011;13450;49.374;8.584;2024-01-30T11:29:40;12.65;;;5.82;;
25559;SDS011;13450;49.374;8.584;2024-01-30T11:32:07;11.18;;;4.75;;
25559;SDS011;13450;49.374;8.584;2024-01-30T11:34:35;10.85;;;5.60;;
25559;SDS011;13450;49.374;8.584;2024-01-30T11:37:07;10.13;;;5.50;;
25559;SDS011;13450;49.374;8.584;2024-01-30T11:39:34;14.13;;;6.75;;
25559;SDS011;13450;49.374;8.584;2024-01-30T11:42:04;11.93;;;5.57;;
25559;SDS011;13450;49.374;8.584;2024-01-30T11:44:33;11.95;;;6.45;;
25559;SDS011;13450;49.374;8.584;2024-01-30T11:47:01;10.38;;;5.68;;
25559;SDS011;13450;49.374;8.584;2024-01-30T11:49:28;9.15;;;4.72;;
25559;SDS011;13450;49.374;8.584;2024-01-30T11:51:54;9.13;;;4.78;;
25559;SDS011;13450;49.374;8.584;2024-01-30T11:54:19;11.23;;;5.13;;
25559;SDS011;13450;49.374;8.584;2024-01-30T11:56:45;10.70;;;5.13;;
25559;SDS011;13450;49.374;8.584;2024-01-30T11:59:14;10.80;;;5.72;;
25559;SDS011;13450;49.374;8.584;2024-01-30T12:01:42;10.65;;;5.07;;
25559;SDS011;13450;49.374;8.584;2024-01-30T12:04:08;13.93;;;5.45;;
25559;SDS011;13450;49.374;8.584;2024-01-30T12:06:35;9.93;;;4.88;;
25559;SDS011;13450;49.374;8.584;2024-01-30T12:09:01;9.25;;;5.38;;
25559;SDS011;13450;49.374;8.584;2024-01-30T12:11:43;9.80;;;4.97;;
25559;SDS011;13450;49.374;8.584;2024-01-30T12:14:12;11.00;;;5.65;;
25559;SDS011;13450;49.374;8.584;2024-01-30T12:16:37;11.50;;;5.72;;
25559;SDS011;13450;49.374;8.584;2024-01-30T12:19:03;10.48;;;4.65;;
25559;SDS011;13450;49.374;8.584;2024-01-30T12:21:28;9.65;;;4.47;;
25559;SDS011;13450;49.374;8.584;2024-01-30T12:23:54;10.70;;;4.72;;
25559;SDS011;13450;49.374;8.584;2024-01-30T12:26:21;9.18;;;4.88;;
25559;SDS011;13450;49.374;8.584;2024-01-30T12:28:47;10.98;;;5.35;;
25559;SDS011;13450;49.374;8.584;2024-01-30T12:31:15;14.25;;;5.50;;
25559;SDS011;13450;49.374;8.584;2024-01-30T12:33:41;11.00;;;5.30;;
25559;SDS011;13450;49.374;8.584;2024-01-30T12:36:09;7.32;;;4.38;;
25559;SDS011;13450;49.374;8.584;2024-01-30T12:38:36;9.55;;;4.63;;
25559;SDS011;13450;49.374;8.584;2024-01-30T12:41:01;10.93;;;5.45;;
25559;SDS011;13450;49.374;8.584;2024-01-30T12:43:27;8.98;;;4.68;;
25559;SDS011;13450;49.374;8.584;2024-01-30T12:45:53;8.45;;;3.78;;
25559;SDS011;13450;49.374;8.584;2024-01-30T12:48:18;9.88;;;5.28;;
25559;SDS011;13450;49.374;8.584;2024-01-30T12:50:44;11.00;;;5.97;;
25559;SDS011;13450;49.374;8.584;2024-01-30T12:53:09;9.88;;;5.25;;
25559;SDS011;13450;49.374;8.584;2024-01-30T12:55:35;9.60;;;4.72;;
25559;SDS011;13450;49.374;8.584;2024-01-30T12:58:00;9.80;;;5.00;;
25559;SDS011;13450;49.374;8.584;2024-01-30T13:00:26;9.95;;;4.60;;
25559;SDS011;13450;49.374;8.584;2024-01-30T13:02:56;14.45;;;5.88;;
25559;SDS011;13450;49.374;8.584;2024-01-30T13:05:21;16.27;;;7.38;;
25559;SDS011;13450;49.374;8.584;2024-01-30T13:07:47;8.77;;;4.70;;
25559;SDS011;13450;49.374;8.584;2024-01-30T13:10:24;9.05;;;4.85;;
25559;SDS011;13450;49.374;8.584;2024-01-30T13:12:50;7.57;;;4.07;;
25559;SDS011;13450;49.374;8.584;2024-01-30T13:15:16;9.05;;;4.28;;
25559;SDS011;13450;49.374;8.584;2024-01-30T13:17:41;7.72;;;4.38;;
25559;SDS011;13450;49.374;8.584;2024-01-30T13:20:10;8.60;;;3.80;;
25559;SDS011;13450;49.374;8.584;2024-01-30T13:22:36;9.40;;;4.32;;
25559;SDS011;13450;49.374;8.584;2024-01-30T13:25:03;11.10;;;3.92;;
25559;SDS011;13450;49.374;8.584;2024-01-30T13:27:31;7.03;;;3.45;;
25559;SDS011;13450;49.374;8.584;2024-01-30T13:29:56;8.25;;;3.70;;
25559;SDS011;13450;49.374;8.584;2024-01-30T13:32:22;10.20;;;4.25;;
25559;SDS011;13450;49.374;8.584;2024-01-30T13:34:47;7.85;;;3.88;;
25559;SDS011;13450;49.374;8.584;2024-01-30T13:37:16;7.45;;;3.97;;
25559;SDS011;13450;49.374;8.584;2024-01-30T13:42:13;9.48;;;6.80;;
25559;SDS011;13450;49.374;8.584;2024-01-30T13:44:38;7.45;;;3.35;;
25559;SDS011;13450;49.374;8.584;2024-01-30T13:47:04;7.95;;;3.90;;
25559;SDS011;13450;49.374;8.584;2024-01-30T13:49:29;7.07;;;3.58;;
25559;SDS011;13450;49.374;8.584;2024-01-30T13:51:55;6.55;;;3.72;;
25559;SDS011;13450;49.374;8.584;2024-01-30T13:54:20;6.80;;;3.30;;
25559;SDS011;13450;49.374;8.584;2024-01-30T13:56:45;8.82;;;4.15;;
25559;SDS011;13450;49.374;8.584;2024-01-30T13:59:11;6.95;;;3.28;;
25559;SDS011;13450;49.374;8.584;2024-01-30T14:01:36;6.35;;;3.35;;
25559;SDS011;13450;49.374;8.584;2024-01-30T14:04:01;7.03;;;3.17;;
25559;SDS011;13450;49.374;8.584;2024-01-30T14:06:27;7.60;;;3.42;;
25559;SDS011;13450;49.374;8.584;2024-01-30T14:08:56;7.85;;;3.05;;
25559;SDS011;13450;49.374;8.584;2024-01-30T14:11:21;7.85;;;3.72;;
25559;SDS011;13450;49.374;8.584;2024-01-30T14:13:46;7.82;;;3.75;;
25559;SDS011;13450;49.374;8.584;2024-01-30T14:16:11;6.75;;;3.75;;
25559;SDS011;13450;49.374;8.584;2024-01-30T14:18:37;8.00;;;3.45;;
25559;SDS011;13450;49.374;8.584;2024-01-30T14:21:06;5.60;;;2.95;;
25559;SDS011;13450;49.374;8.584;2024-01-30T14:23:32;9.30;;;4.72;;
25559;SDS011;13450;49.374;8.584;2024-01-30T14:25:58;8.65;;;3.50;;
25559;SDS011;13450;49.374;8.584;2024-01-30T14:28:23;5.97;;;3.00;;
25559;SDS011;13450;49.374;8.584;2024-01-30T14:30:48;8.20;;;3.72;;
25559;SDS011;13450;49.374;8.584;2024-01-30T14:33:14;5.30;;;2.50;;
25559;SDS011;13450;49.374;8.584;2024-01-30T14:35:42;10.88;;;5.93;;
25559;SDS011;13450;49.374;8.584;2024-01-30T14:38:07;10.65;;;5.15;;
25559;SDS011;13450;49.374;8.584;2024-01-30T14:40:36;10.73;;;4.00;;
25559;SDS011;13450;49.374;8.584;2024-01-30T14:43:04;7.85;;;3.65;;
25559;SDS011;13450;49.374;8.584;2024-01-30T14:45:29;7.32;;;3.20;;